createdAt,value
2022-10-19T00:00:48.000Z,16000.0
2022-10-19T00:01:49.000Z,16000.0
2022-10-19T00:02:49.000Z,16000.0
2022-10-19T00:03:48.000Z,16000.0
2022-10-19T00:04:49.000Z,16000.0
2022-10-19T00:05:49.000Z,16000.0
2022-10-19T00:06:48.000Z,16000.0
2022-10-19T00:07:49.000Z,16000.0
2022-10-19T00:08:48.000Z,16000.0
2022-10-19T00:09:49.000Z,16000.0
2022-10-19T00:10:49.000Z,16000.0
2022-10-19T00:11:48.000Z,16000.0
2022-10-19T00:12:49.000Z,16000.0
2022-10-19T00:13:48.000Z,16000.0
2022-10-19T00:14:48.000Z,16000.0
2022-10-19T00:15:49.000Z,16000.0
2022-10-19T00:16:48.000Z,16000.0
2022-10-19T00:17:49.000Z,16000.0
2022-10-19T00:18:49.000Z,16000.0
2022-10-19T00:19:48.000Z,16000.0
2022-10-19T00:20:49.000Z,16000.0
2022-10-19T00:21:48.000Z,15720.0
2022-10-19T00:22:49.000Z,14133.0
2022-10-19T00:23:49.000Z,1736.0
2022-10-19T00:24:48.000Z,205.0
2022-10-19T00:25:49.000Z,194.0
2022-10-19T00:26:48.000Z,230.0
2022-10-19T00:27:48.000Z,299.0
2022-10-19T00:28:49.000Z,522.0
2022-10-19T00:29:48.000Z,1279.0
2022-10-19T00:30:49.000Z,2083.0
2022-10-19T00:31:49.000Z,2860.0
2022-10-19T00:32:48.000Z,3708.0
2022-10-19T00:33:49.000Z,4875.0
2022-10-19T00:34:48.000Z,6313.0
2022-10-19T00:35:49.000Z,8584.0
2022-10-19T00:36:49.000Z,11607.0
2022-10-19T00:37:48.000Z,13451.0
2022-10-19T00:38:49.000Z,16000.0
2022-10-19T00:39:48.000Z,16000.0
2022-10-19T00:40:48.000Z,16000.0
2022-10-19T00:41:49.000Z,16000.0
2022-10-19T00:42:48.000Z,16000.0
2022-10-19T00:43:49.000Z,16000.0
2022-10-19T00:44:49.000Z,16000.0
2022-10-19T00:45:48.000Z,16000.0
2022-10-19T00:46:49.000Z,16000.0
2022-10-19T00:47:48.000Z,16000.0
2022-10-19T00:48:48.000Z,16000.0
2022-10-19T00:49:49.000Z,16000.0
2022-10-19T00:50:48.000Z,16000.0
2022-10-19T00:51:49.000Z,16000.0
2022-10-19T00:52:49.000Z,16000.0
2022-10-19T00:53:48.000Z,16000.0
2022-10-19T00:54:49.000Z,16000.0
2022-10-19T00:55:49.000Z,16000.0
2022-10-19T00:56:48.000Z,16000.0
2022-10-19T00:57:49.000Z,16000.0
2022-10-19T00:58:48.000Z,16000.0
2022-10-19T00:59:49.000Z,16000.0
2022-10-19T01:00:49.000Z,16000.0
2022-10-19T01:01:48.000Z,16000.0
2022-10-19T01:02:49.000Z,16000.0
2022-10-19T01:03:48.000Z,16000.0
2022-10-19T01:04:48.000Z,16000.0
2022-10-19T01:05:49.000Z,16000.0
2022-10-19T01:06:48.000Z,16000.0
2022-10-19T01:07:49.000Z,16000.0
2022-10-19T01:08:49.000Z,16000.0
2022-10-19T01:09:48.000Z,16000.0
2022-10-19T01:10:49.000Z,16000.0
2022-10-19T01:11:48.000Z,16000.0
2022-10-19T01:12:49.000Z,16000.0
2022-10-19T01:13:49.000Z,16000.0
2022-10-19T01:14:48.000Z,16000.0
2022-10-19T01:15:49.000Z,16000.0
2022-10-19T01:16:48.000Z,16000.0
2022-10-19T01:17:48.000Z,16000.0
2022-10-19T01:18:49.000Z,16000.0
2022-10-19T01:19:48.000Z,16000.0
2022-10-19T01:20:49.000Z,16000.0
2022-10-19T01:21:49.000Z,16000.0
2022-10-19T01:22:48.000Z,16000.0
2022-10-19T01:23:49.000Z,16000.0
2022-10-19T01:24:48.000Z,16000.0
2022-10-19T01:25:49.000Z,16000.0
2022-10-19T01:26:49.000Z,16000.0
2022-10-19T01:27:48.000Z,16000.0
2022-10-19T01:28:49.000Z,16000.0
2022-10-19T01:29:49.000Z,16000.0
2022-10-19T01:30:48.000Z,16000.0
2022-10-19T01:31:49.000Z,16000.0
2022-10-19T01:32:48.000Z,16000.0
2022-10-19T01:34:49.000Z,16000.0
2022-10-19T01:35:48.000Z,16000.0
2022-10-19T01:36:49.000Z,16000.0
2022-10-19T01:37:48.000Z,16000.0
2022-10-19T01:38:49.000Z,16000.0
2022-10-19T01:39:49.000Z,16000.0
2022-10-19T01:40:48.000Z,16000.0
2022-10-19T01:41:49.000Z,16000.0
2022-10-19T01:42:48.000Z,16000.0
2022-10-19T01:43:48.000Z,16000.0
2022-10-19T01:44:49.000Z,16000.0
2022-10-19T01:45:48.000Z,16000.0
2022-10-19T01:46:49.000Z,16000.0
2022-10-19T01:47:49.000Z,16000.0
2022-10-19T01:48:48.000Z,16000.0
2022-10-19T01:49:49.000Z,16000.0
2022-10-19T01:50:49.000Z,16000.0
2022-10-19T01:52:49.000Z,16000.0
2022-10-19T01:53:48.000Z,16000.0
2022-10-19T01:54:48.000Z,16000.0
2022-10-19T01:55:49.000Z,16000.0
2022-10-19T01:56:48.000Z,16000.0
2022-10-19T01:57:49.000Z,16000.0
2022-10-19T01:58:49.000Z,16000.0
2022-10-19T01:59:48.000Z,16000.0
2022-10-19T02:00:49.000Z,16000.0
2022-10-19T02:01:48.000Z,16000.0
2022-10-19T02:02:49.000Z,16000.0
2022-10-19T02:03:49.000Z,16000.0
2022-10-19T02:04:48.000Z,16000.0
2022-10-19T02:05:49.000Z,16000.0
2022-10-19T02:06:49.000Z,16000.0
2022-10-19T02:07:48.000Z,16000.0
2022-10-19T02:08:49.000Z,16000.0
2022-10-19T02:09:48.000Z,16000.0
2022-10-19T02:10:49.000Z,16000.0
2022-10-19T02:11:49.000Z,16000.0
2022-10-19T02:12:48.000Z,16000.0
2022-10-19T02:13:49.000Z,16000.0
2022-10-19T02:14:48.000Z,16000.0
2022-10-19T02:15:48.000Z,16000.0
2022-10-19T02:16:49.000Z,16000.0
2022-10-19T02:17:48.000Z,16000.0
2022-10-19T02:18:49.000Z,16000.0
2022-10-19T02:19:49.000Z,16000.0
2022-10-19T02:20:48.000Z,16000.0
2022-10-19T02:21:49.000Z,16000.0
2022-10-19T02:22:48.000Z,16000.0
2022-10-19T02:23:49.000Z,16000.0
2022-10-19T02:24:49.000Z,16000.0
2022-10-19T02:25:48.000Z,16000.0
2022-10-19T02:26:49.000Z,16000.0
2022-10-19T02:27:48.000Z,16000.0
2022-10-19T02:28:49.000Z,16000.0
2022-10-19T02:29:49.000Z,16000.0
2022-10-19T02:30:48.000Z,16000.0
2022-10-19T02:31:49.000Z,16000.0
2022-10-19T02:32:49.000Z,16000.0
2022-10-19T02:33:48.000Z,16000.0
2022-10-19T02:34:49.000Z,16000.0
2022-10-19T02:35:48.000Z,16000.0
2022-10-19T02:36:49.000Z,16000.0
2022-10-19T02:37:49.000Z,16000.0
2022-10-19T02:38:48.000Z,16000.0
2022-10-19T02:39:49.000Z,16000.0
2022-10-19T02:40:48.000Z,16000.0
2022-10-19T02:41:48.000Z,16000.0
2022-10-19T02:42:49.000Z,16000.0
2022-10-19T02:43:48.000Z,16000.0
2022-10-19T02:44:49.000Z,16000.0
2022-10-19T02:45:49.000Z,16000.0
2022-10-19T02:46:48.000Z,16000.0
2022-10-19T02:47:49.000Z,16000.0
2022-10-19T02:48:49.000Z,16000.0
2022-10-19T02:49:48.000Z,16000.0
2022-10-19T02:50:49.000Z,16000.0
2022-10-19T02:51:48.000Z,16000.0
2022-10-19T02:52:48.000Z,16000.0
2022-10-19T02:53:49.000Z,16000.0
2022-10-19T02:54:48.000Z,16000.0
2022-10-19T02:55:49.000Z,16000.0
2022-10-19T02:56:49.000Z,16000.0
2022-10-19T02:57:48.000Z,16000.0
2022-10-19T02:58:49.000Z,16000.0
2022-10-19T02:59:48.000Z,16000.0
2022-10-19T03:00:48.000Z,16000.0
2022-10-19T03:01:49.000Z,16000.0
2022-10-19T03:02:48.000Z,16000.0
2022-10-19T03:03:49.000Z,16000.0
2022-10-19T03:04:48.000Z,16000.0
2022-10-19T03:05:48.000Z,16000.0
2022-10-19T03:06:49.000Z,16000.0
2022-10-19T03:07:48.000Z,16000.0
2022-10-19T03:08:49.000Z,16000.0
2022-10-19T03:09:49.000Z,16000.0
2022-10-19T03:10:48.000Z,16000.0
2022-10-19T03:11:49.000Z,16000.0
2022-10-19T03:12:48.000Z,16000.0
2022-10-19T03:13:49.000Z,16000.0
2022-10-19T03:14:49.000Z,16000.0
2022-10-19T03:15:48.000Z,16000.0
2022-10-19T03:16:49.000Z,16000.0
2022-10-19T03:17:49.000Z,16000.0
2022-10-19T03:18:48.000Z,16000.0
2022-10-19T03:19:49.000Z,16000.0
2022-10-19T03:20:48.000Z,16000.0
2022-10-19T03:21:49.000Z,16000.0
2022-10-19T03:22:49.000Z,16000.0
2022-10-19T03:23:48.000Z,16000.0
2022-10-19T03:24:49.000Z,16000.0
2022-10-19T03:25:48.000Z,16000.0
2022-10-19T03:26:48.000Z,16000.0
2022-10-19T03:27:49.000Z,16000.0
2022-10-19T03:28:48.000Z,16000.0
2022-10-19T03:29:49.000Z,16000.0
2022-10-19T03:30:48.000Z,16000.0
2022-10-19T03:31:48.000Z,16000.0
2022-10-19T03:32:49.000Z,16000.0
2022-10-19T03:33:48.000Z,16000.0
2022-10-19T03:34:49.000Z,16000.0
2022-10-19T03:35:49.000Z,16000.0
2022-10-19T03:36:48.000Z,16000.0
2022-10-19T03:37:49.000Z,16000.0
2022-10-19T03:38:48.000Z,16000.0
2022-10-19T03:39:48.000Z,16000.0
2022-10-19T03:40:49.000Z,16000.0
2022-10-19T03:41:48.000Z,16000.0
2022-10-19T03:42:49.000Z,16000.0
2022-10-19T03:43:49.000Z,16000.0
2022-10-19T03:44:48.000Z,16000.0
2022-10-19T03:45:49.000Z,16000.0
2022-10-19T03:46:48.000Z,16000.0
2022-10-19T03:47:49.000Z,16000.0
2022-10-19T03:48:49.000Z,16000.0
2022-10-19T03:49:48.000Z,16000.0
2022-10-19T03:50:49.000Z,16000.0
2022-10-19T03:51:48.000Z,16000.0
2022-10-19T03:52:48.000Z,16000.0
2022-10-19T03:53:49.000Z,16000.0
2022-10-19T03:54:48.000Z,16000.0
2022-10-19T03:55:49.000Z,16000.0
2022-10-19T03:56:49.000Z,16000.0
2022-10-19T03:57:48.000Z,16000.0
2022-10-19T03:58:49.000Z,16000.0
2022-10-19T03:59:48.000Z,16000.0
2022-10-19T04:00:48.000Z,16000.0
2022-10-19T04:01:49.000Z,16000.0
2022-10-19T04:02:48.000Z,16000.0
2022-10-19T04:03:49.000Z,16000.0
2022-10-19T04:04:49.000Z,16000.0
2022-10-19T04:05:48.000Z,16000.0
2022-10-19T04:06:49.000Z,16000.0
2022-10-19T04:07:48.000Z,16000.0
2022-10-19T04:08:49.000Z,16000.0
2022-10-19T04:09:49.000Z,16000.0
2022-10-19T04:10:48.000Z,16000.0
2022-10-19T04:11:49.000Z,16000.0
2022-10-19T04:12:48.000Z,16000.0
2022-10-19T04:13:48.000Z,16000.0
2022-10-19T04:14:49.000Z,16000.0
2022-10-19T04:15:48.000Z,16000.0
2022-10-19T04:16:49.000Z,16000.0
2022-10-19T04:17:49.000Z,16000.0
2022-10-19T04:18:48.000Z,16000.0
2022-10-19T04:19:49.000Z,16000.0
2022-10-19T04:20:48.000Z,16000.0
2022-10-19T04:21:49.000Z,16000.0
2022-10-19T04:22:49.000Z,16000.0
2022-10-19T04:23:48.000Z,16000.0
2022-10-19T04:24:49.000Z,16000.0
2022-10-19T04:25:48.000Z,16000.0
2022-10-19T04:26:48.000Z,16000.0
2022-10-19T04:27:49.000Z,16000.0
2022-10-19T04:28:48.000Z,16000.0
2022-10-19T04:29:49.000Z,16000.0
2022-10-19T04:30:49.000Z,16000.0
2022-10-19T04:31:48.000Z,16000.0
2022-10-19T04:32:49.000Z,16000.0
2022-10-19T04:33:48.000Z,16000.0
2022-10-19T04:34:49.000Z,16000.0
2022-10-19T04:35:49.000Z,16000.0
2022-10-19T04:36:48.000Z,16000.0
2022-10-19T04:37:49.000Z,16000.0
2022-10-19T04:38:48.000Z,16000.0
2022-10-19T04:39:48.000Z,16000.0
2022-10-19T04:40:49.000Z,16000.0
2022-10-19T04:41:48.000Z,16000.0
2022-10-19T04:42:49.000Z,16000.0
2022-10-19T04:43:49.000Z,16000.0
2022-10-19T04:44:48.000Z,16000.0
2022-10-19T04:45:49.000Z,16000.0
2022-10-19T04:46:48.000Z,16000.0
2022-10-19T04:47:49.000Z,16000.0
2022-10-19T04:48:49.000Z,16000.0
2022-10-19T04:49:48.000Z,16000.0
2022-10-19T04:50:48.000Z,16000.0
2022-10-19T04:51:49.000Z,16000.0
2022-10-19T04:52:48.000Z,16000.0
2022-10-19T04:53:49.000Z,16000.0
2022-10-19T04:54:49.000Z,16000.0
2022-10-19T04:55:48.000Z,16000.0
2022-10-19T04:56:49.000Z,16000.0
2022-10-19T04:57:48.000Z,16000.0
2022-10-19T04:58:49.000Z,16000.0
2022-10-19T04:59:49.000Z,16000.0
2022-10-19T05:00:48.000Z,16000.0
2022-10-19T05:01:49.000Z,16000.0
2022-10-19T05:02:48.000Z,16000.0
2022-10-19T05:03:48.000Z,16000.0
2022-10-19T05:04:49.000Z,16000.0
2022-10-19T05:05:48.000Z,16000.0
2022-10-19T05:06:49.000Z,16000.0
2022-10-19T05:07:49.000Z,16000.0
2022-10-19T05:08:48.000Z,16000.0
2022-10-19T05:09:49.000Z,16000.0
2022-10-19T05:10:48.000Z,16000.0
2022-10-19T05:11:49.000Z,16000.0
2022-10-19T05:12:49.000Z,16000.0
2022-10-19T05:13:48.000Z,16000.0
2022-10-19T05:14:49.000Z,16000.0
2022-10-19T05:15:48.000Z,16000.0
2022-10-19T05:16:48.000Z,16000.0
2022-10-19T05:17:49.000Z,16000.0
2022-10-19T05:18:48.000Z,16000.0
2022-10-19T05:19:49.000Z,16000.0
2022-10-19T05:20:49.000Z,16000.0
2022-10-19T05:21:48.000Z,16000.0
2022-10-19T05:22:49.000Z,16000.0
2022-10-19T05:23:48.000Z,16000.0
2022-10-19T05:24:49.000Z,16000.0
2022-10-19T05:25:49.000Z,16000.0
2022-10-19T05:26:48.000Z,16000.0
2022-10-19T05:27:49.000Z,16000.0
2022-10-19T05:28:48.000Z,16000.0
2022-10-19T05:29:48.000Z,16000.0
2022-10-19T05:30:49.000Z,16000.0
2022-10-19T05:31:48.000Z,16000.0
2022-10-19T05:32:49.000Z,16000.0
2022-10-19T05:33:49.000Z,16000.0
2022-10-19T05:34:48.000Z,16000.0
2022-10-19T05:35:49.000Z,16000.0
2022-10-19T05:36:48.000Z,16000.0
2022-10-19T05:37:49.000Z,16000.0
2022-10-19T05:38:49.000Z,16000.0
2022-10-19T05:39:48.000Z,16000.0
2022-10-19T05:40:49.000Z,16000.0
2022-10-19T05:41:48.000Z,16000.0
2022-10-19T05:42:48.000Z,16000.0
2022-10-19T05:43:49.000Z,16000.0
2022-10-19T05:44:48.000Z,16000.0
2022-10-19T05:45:49.000Z,16000.0
2022-10-19T05:46:49.000Z,16000.0
2022-10-19T05:47:48.000Z,16000.0
2022-10-19T05:48:49.000Z,16000.0
2022-10-19T05:49:49.000Z,16000.0
2022-10-19T05:50:48.000Z,16000.0
2022-10-19T05:51:49.000Z,16000.0
2022-10-19T05:52:48.000Z,16000.0
2022-10-19T05:53:48.000Z,16000.0
2022-10-19T05:54:49.000Z,16000.0
2022-10-19T05:55:48.000Z,16000.0
2022-10-19T05:56:49.000Z,16000.0
2022-10-19T05:57:49.000Z,16000.0
2022-10-19T05:58:48.000Z,16000.0
2022-10-19T05:59:49.000Z,16000.0
2022-10-19T06:00:48.000Z,16000.0
2022-10-19T06:01:49.000Z,16000.0
2022-10-19T06:02:49.000Z,16000.0
2022-10-19T06:03:48.000Z,16000.0
2022-10-19T06:04:49.000Z,16000.0
2022-10-19T06:05:48.000Z,16000.0
2022-10-19T06:06:48.000Z,16000.0
2022-10-19T06:07:49.000Z,16000.0
2022-10-19T06:08:48.000Z,16000.0
2022-10-19T06:09:49.000Z,16000.0
2022-10-19T06:10:49.000Z,16000.0
2022-10-19T06:11:48.000Z,16000.0
2022-10-19T06:12:49.000Z,16000.0
2022-10-19T06:13:48.000Z,16000.0
2022-10-19T06:14:48.000Z,16000.0
2022-10-19T06:15:49.000Z,16000.0
2022-10-19T06:16:48.000Z,16000.0
2022-10-19T06:17:49.000Z,16000.0
2022-10-19T06:18:48.000Z,16000.0
2022-10-19T06:19:48.000Z,16000.0
2022-10-19T06:20:49.000Z,16000.0
2022-10-19T06:21:48.000Z,16000.0
2022-10-19T06:22:49.000Z,16000.0
2022-10-19T06:23:49.000Z,16000.0
2022-10-19T06:24:48.000Z,16000.0
2022-10-19T06:25:49.000Z,16000.0
2022-10-19T06:26:48.000Z,16000.0
2022-10-19T06:27:49.000Z,16000.0
2022-10-19T06:28:49.000Z,16000.0
2022-10-19T06:29:48.000Z,16000.0
2022-10-19T06:30:49.000Z,16000.0
2022-10-19T06:31:48.000Z,16000.0
2022-10-19T06:32:48.000Z,16000.0
2022-10-19T06:33:49.000Z,16000.0
2022-10-19T06:34:48.000Z,16000.0
2022-10-19T06:35:49.000Z,16000.0
2022-10-19T06:36:49.000Z,16000.0
2022-10-19T06:37:48.000Z,16000.0
2022-10-19T06:38:49.000Z,16000.0
2022-10-19T06:39:48.000Z,16000.0
2022-10-19T06:40:48.000Z,16000.0
2022-10-19T06:41:49.000Z,16000.0
2022-10-19T06:42:48.000Z,16000.0
2022-10-19T06:43:49.000Z,16000.0
2022-10-19T06:44:48.000Z,16000.0
2022-10-19T06:45:48.000Z,16000.0
2022-10-19T06:46:49.000Z,16000.0
2022-10-19T06:47:48.000Z,16000.0
2022-10-19T06:48:48.000Z,16000.0
2022-10-19T06:49:49.000Z,16000.0
2022-10-19T06:50:48.000Z,16000.0
2022-10-19T06:51:49.000Z,16000.0
2022-10-19T06:52:49.000Z,16000.0
2022-10-19T06:53:48.000Z,16000.0
2022-10-19T06:54:49.000Z,16000.0
2022-10-19T06:55:48.000Z,16000.0
2022-10-19T06:56:48.000Z,16000.0
2022-10-19T06:57:49.000Z,16000.0
2022-10-19T06:58:48.000Z,16000.0
2022-10-19T06:59:49.000Z,16000.0
2022-10-19T07:00:49.000Z,16000.0
2022-10-19T07:01:48.000Z,16000.0
2022-10-19T07:02:49.000Z,16000.0
2022-10-19T07:03:48.000Z,16000.0
2022-10-19T07:04:48.000Z,16000.0
2022-10-19T07:05:49.000Z,16000.0
2022-10-19T07:06:48.000Z,16000.0
2022-10-19T07:07:49.000Z,16000.0
2022-10-19T07:08:49.000Z,16000.0
2022-10-19T07:09:48.000Z,16000.0
2022-10-19T07:10:49.000Z,16000.0
2022-10-19T07:11:48.000Z,16000.0
2022-10-19T07:12:49.000Z,16000.0
2022-10-19T07:13:49.000Z,16000.0
2022-10-19T07:14:48.000Z,16000.0
2022-10-19T07:15:49.000Z,16000.0
2022-10-19T07:16:48.000Z,16000.0
2022-10-19T07:17:48.000Z,16000.0
2022-10-19T07:18:49.000Z,16000.0
2022-10-19T07:19:48.000Z,16000.0
2022-10-19T07:20:49.000Z,16000.0
2022-10-19T07:21:48.000Z,16000.0
2022-10-19T07:22:48.000Z,16000.0
2022-10-19T07:23:49.000Z,16000.0
2022-10-19T07:24:48.000Z,16000.0
2022-10-19T07:25:49.000Z,16000.0
2022-10-19T07:26:49.000Z,16000.0
2022-10-19T07:27:48.000Z,16000.0
2022-10-19T07:28:49.000Z,16000.0
2022-10-19T07:29:48.000Z,16000.0
2022-10-19T07:30:48.000Z,16000.0
2022-10-19T07:31:49.000Z,16000.0
2022-10-19T07:32:48.000Z,16000.0
2022-10-19T07:33:49.000Z,16000.0
2022-10-19T07:34:49.000Z,16000.0
2022-10-19T07:35:48.000Z,16000.0
2022-10-19T07:36:49.000Z,16000.0
2022-10-19T07:37:48.000Z,16000.0
2022-10-19T07:38:49.000Z,16000.0
2022-10-19T07:39:49.000Z,16000.0
2022-10-19T07:40:48.000Z,16000.0
2022-10-19T07:41:49.000Z,16000.0
2022-10-19T07:42:48.000Z,16000.0
2022-10-19T07:43:48.000Z,16000.0
2022-10-19T07:44:49.000Z,16000.0
2022-10-19T07:45:48.000Z,16000.0
2022-10-19T07:46:49.000Z,16000.0
2022-10-19T07:47:48.000Z,16000.0
2022-10-19T07:48:48.000Z,16000.0
2022-10-19T07:49:49.000Z,16000.0
2022-10-19T07:50:48.000Z,16000.0
2022-10-19T07:51:48.000Z,16000.0
2022-10-19T07:52:49.000Z,16000.0
2022-10-19T07:53:48.000Z,16000.0
2022-10-19T07:54:49.000Z,16000.0
2022-10-19T07:55:49.000Z,16000.0
2022-10-19T07:56:48.000Z,16000.0
2022-10-19T07:57:49.000Z,16000.0
2022-10-19T07:58:48.000Z,16000.0
2022-10-19T07:59:49.000Z,16000.0
2022-10-19T08:00:49.000Z,16000.0
2022-10-19T08:01:48.000Z,16000.0
2022-10-19T08:02:49.000Z,16000.0
2022-10-19T08:05:49.000Z,16000.0
2022-10-19T08:06:48.000Z,16000.0
2022-10-19T08:07:49.000Z,16000.0
2022-10-19T08:08:48.000Z,16000.0
2022-10-19T08:09:48.000Z,16000.0
2022-10-19T08:10:49.000Z,16000.0
2022-10-19T08:11:48.000Z,16000.0
2022-10-19T08:12:49.000Z,16000.0
2022-10-19T08:13:49.000Z,16000.0
2022-10-19T08:14:48.000Z,16000.0
2022-10-19T08:15:49.000Z,16000.0
2022-10-19T08:16:48.000Z,16000.0
2022-10-19T08:17:48.000Z,16000.0
2022-10-19T08:18:49.000Z,16000.0
2022-10-19T08:19:48.000Z,16000.0
2022-10-19T08:20:49.000Z,16000.0
2022-10-19T08:21:49.000Z,16000.0
2022-10-19T08:22:48.000Z,16000.0
2022-10-19T08:23:49.000Z,16000.0
2022-10-19T08:24:48.000Z,16000.0
2022-10-19T08:25:48.000Z,16000.0
2022-10-19T08:26:49.000Z,16000.0
2022-10-19T08:27:48.000Z,16000.0
2022-10-19T08:28:49.000Z,16000.0
2022-10-19T08:29:48.000Z,16000.0
2022-10-19T08:30:48.000Z,16000.0
2022-10-19T08:31:49.000Z,16000.0
2022-10-19T08:32:48.000Z,16000.0
2022-10-19T08:33:49.000Z,16000.0
2022-10-19T08:34:48.000Z,16000.0
2022-10-19T08:35:48.000Z,16000.0
2022-10-19T08:36:49.000Z,16000.0
2022-10-19T08:37:48.000Z,16000.0
2022-10-19T08:38:49.000Z,16000.0
2022-10-19T08:39:49.000Z,16000.0
2022-10-19T08:40:48.000Z,16000.0
2022-10-19T08:42:48.000Z,16000.0
2022-10-19T08:43:48.000Z,16000.0
2022-10-19T08:44:49.000Z,16000.0
2022-10-19T08:45:48.000Z,16000.0
2022-10-19T08:46:49.000Z,16000.0
2022-10-19T08:47:49.000Z,16000.0
2022-10-19T08:48:48.000Z,16000.0
2022-10-19T08:49:49.000Z,16000.0
2022-10-19T08:50:49.000Z,16000.0
2022-10-19T08:51:48.000Z,16000.0
2022-10-19T08:52:49.000Z,16000.0
2022-10-19T08:53:48.000Z,16000.0
2022-10-19T08:54:48.000Z,16000.0
2022-10-19T08:55:49.000Z,16000.0
2022-10-19T08:56:48.000Z,16000.0
2022-10-19T08:57:49.000Z,16000.0
2022-10-19T08:58:49.000Z,16000.0
2022-10-19T08:59:48.000Z,16000.0
2022-10-19T09:00:49.000Z,16000.0
2022-10-19T09:01:48.000Z,16000.0
2022-10-19T09:02:48.000Z,16000.0
2022-10-19T09:03:49.000Z,16000.0
2022-10-19T09:04:48.000Z,16000.0
2022-10-19T09:05:49.000Z,16000.0
2022-10-19T09:06:48.000Z,16000.0
2022-10-19T09:07:48.000Z,16000.0
2022-10-19T09:08:49.000Z,16000.0
2022-10-19T09:09:48.000Z,16000.0
2022-10-19T09:10:49.000Z,16000.0
2022-10-19T09:11:49.000Z,16000.0
2022-10-19T09:12:48.000Z,16000.0
2022-10-19T09:13:49.000Z,16000.0
2022-10-19T09:14:48.000Z,16000.0
2022-10-19T09:15:48.000Z,16000.0
2022-10-19T09:16:49.000Z,16000.0
2022-10-19T09:17:48.000Z,16000.0
2022-10-19T09:18:49.000Z,16000.0
2022-10-19T09:19:48.000Z,16000.0
2022-10-19T09:20:48.000Z,16000.0
2022-10-19T09:21:49.000Z,16000.0
2022-10-19T09:22:48.000Z,16000.0
2022-10-19T09:23:49.000Z,16000.0
2022-10-19T09:24:49.000Z,16000.0
2022-10-19T09:25:48.000Z,16000.0
2022-10-19T09:26:49.000Z,16000.0
2022-10-19T09:27:48.000Z,16000.0
2022-10-19T09:28:48.000Z,16000.0
2022-10-19T09:29:49.000Z,16000.0
2022-10-19T09:30:48.000Z,16000.0
2022-10-19T09:31:49.000Z,16000.0
2022-10-19T09:32:48.000Z,16000.0
2022-10-19T09:33:48.000Z,16000.0
2022-10-19T09:34:49.000Z,16000.0
2022-10-19T09:35:48.000Z,16000.0
2022-10-19T09:36:48.000Z,16000.0
2022-10-19T09:37:49.000Z,16000.0
2022-10-19T09:38:48.000Z,16000.0
2022-10-19T09:39:49.000Z,16000.0
2022-10-19T09:40:48.000Z,16000.0
2022-10-19T09:41:48.000Z,16000.0
2022-10-19T09:42:49.000Z,16000.0
2022-10-19T09:43:48.000Z,16000.0
2022-10-19T09:44:49.000Z,16000.0
2022-10-19T09:45:48.000Z,16000.0
2022-10-19T09:46:48.000Z,16000.0
2022-10-19T09:47:49.000Z,16000.0
2022-10-19T09:48:48.000Z,16000.0
2022-10-19T09:49:48.000Z,16000.0
2022-10-19T09:50:49.000Z,16000.0
2022-10-19T09:51:48.000Z,16000.0
2022-10-19T09:52:48.000Z,16000.0
2022-10-19T09:53:49.000Z,16000.0
2022-10-19T09:54:48.000Z,16000.0
2022-10-19T09:55:49.000Z,16000.0
2022-10-19T09:56:48.000Z,16000.0
2022-10-19T09:57:48.000Z,16000.0
2022-10-19T09:58:49.000Z,16000.0
2022-10-19T09:59:48.000Z,16000.0
2022-10-19T10:00:49.000Z,16000.0
2022-10-19T10:01:49.000Z,16000.0
2022-10-19T10:02:48.000Z,16000.0
2022-10-19T10:03:49.000Z,16000.0
2022-10-19T10:04:48.000Z,16000.0
2022-10-19T10:05:48.000Z,16000.0
2022-10-19T10:06:49.000Z,16000.0
2022-10-19T10:07:48.000Z,16000.0
2022-10-19T10:08:49.000Z,16000.0
2022-10-19T10:09:48.000Z,16000.0
2022-10-19T10:10:48.000Z,16000.0
2022-10-19T10:11:49.000Z,16000.0
2022-10-19T10:12:48.000Z,16000.0
2022-10-19T10:13:48.000Z,16000.0
2022-10-19T10:14:49.000Z,16000.0
2022-10-19T10:15:48.000Z,16000.0
2022-10-19T10:16:49.000Z,16000.0
2022-10-19T10:17:48.000Z,16000.0
2022-10-19T10:18:48.000Z,16000.0
2022-10-19T10:19:49.000Z,16000.0
2022-10-19T10:20:48.000Z,16000.0
2022-10-19T10:21:49.000Z,16000.0
2022-10-19T10:22:48.000Z,16000.0
2022-10-19T10:23:48.000Z,16000.0
2022-10-19T10:24:49.000Z,16000.0
2022-10-19T10:25:48.000Z,16000.0
2022-10-19T10:26:48.000Z,16000.0
2022-10-19T10:27:49.000Z,16000.0
2022-10-19T10:28:48.000Z,16000.0
2022-10-19T10:29:49.000Z,16000.0
2022-10-19T10:30:48.000Z,16000.0
2022-10-19T10:31:48.000Z,16000.0
2022-10-19T15:02:48.000Z,16000.0
2022-10-19T15:03:49.000Z,16000.0
2022-10-19T15:04:48.000Z,16000.0
2022-10-19T15:05:48.000Z,16000.0
2022-10-19T15:06:49.000Z,16000.0
2022-10-19T15:07:48.000Z,16000.0
2022-10-19T15:08:49.000Z,16000.0
2022-10-19T15:09:48.000Z,16000.0
2022-10-19T15:10:48.000Z,16000.0
2022-10-19T15:11:49.000Z,16000.0
2022-10-19T15:12:48.000Z,16000.0
2022-10-19T15:13:49.000Z,16000.0
2022-10-19T15:14:48.000Z,16000.0
2022-10-19T15:15:48.000Z,16000.0
2022-10-19T15:16:49.000Z,16000.0
2022-10-19T15:17:48.000Z,16000.0
2022-10-19T15:18:48.000Z,16000.0
2022-10-19T15:19:49.000Z,16000.0
2022-10-19T15:21:49.000Z,16000.0
2022-10-19T15:22:48.000Z,16000.0
2022-10-19T15:23:48.000Z,16000.0
2022-10-19T15:24:49.000Z,16000.0
2022-10-19T15:25:48.000Z,16000.0
2022-10-19T15:26:49.000Z,16000.0
2022-10-19T15:27:48.000Z,16000.0
2022-10-19T15:28:48.000Z,16000.0
2022-10-19T15:29:49.000Z,16000.0
2022-10-19T15:30:48.000Z,16000.0
2022-10-19T15:31:48.000Z,16000.0
2022-10-19T15:32:49.000Z,16000.0
2022-10-19T15:33:48.000Z,16000.0
2022-10-19T15:34:49.000Z,16000.0
2022-10-19T15:36:48.000Z,16000.0
2022-10-19T15:37:49.000Z,16000.0
2022-10-19T15:38:48.000Z,16000.0
2022-10-19T15:39:48.000Z,16000.0
2022-10-19T15:40:48.000Z,16000.0
2022-10-19T15:41:48.000Z,16000.0
2022-10-19T15:42:49.000Z,16000.0
2022-10-19T15:43:48.000Z,16000.0
2022-10-19T15:44:48.000Z,16000.0
2022-10-19T15:45:49.000Z,16000.0
2022-10-19T15:46:48.000Z,16000.0
2022-10-19T15:47:49.000Z,16000.0
2022-10-19T15:48:49.000Z,16000.0
2022-10-19T15:49:48.000Z,16000.0
2022-10-19T15:50:49.000Z,16000.0
2022-10-19T15:51:48.000Z,16000.0
2022-10-19T15:52:48.000Z,16000.0
2022-10-19T15:53:49.000Z,16000.0
2022-10-19T15:54:48.000Z,16000.0
2022-10-19T15:56:49.000Z,16000.0
2022-10-19T15:57:48.000Z,16000.0
2022-10-19T15:58:49.000Z,16000.0
2022-10-19T15:59:48.000Z,16000.0
2022-10-19T16:00:48.000Z,16000.0
2022-10-19T16:01:49.000Z,16000.0
2022-10-19T16:02:48.000Z,16000.0
2022-10-19T16:03:49.000Z,16000.0
2022-10-19T16:04:48.000Z,16000.0
2022-10-19T16:05:48.000Z,16000.0
2022-10-19T16:06:49.000Z,16000.0
2022-10-19T16:07:48.000Z,16000.0
2022-10-19T16:08:48.000Z,16000.0
2022-10-19T16:09:49.000Z,16000.0
2022-10-19T16:10:48.000Z,16000.0
2022-10-19T16:11:49.000Z,16000.0
2022-10-19T16:12:48.000Z,16000.0
2022-10-19T16:13:48.000Z,16000.0
2022-10-19T16:14:49.000Z,16000.0
2022-10-19T16:15:48.000Z,16000.0
2022-10-19T16:16:48.000Z,16000.0
2022-10-19T16:17:48.000Z,16000.0
2022-10-19T16:18:48.000Z,16000.0
2022-10-19T16:19:49.000Z,16000.0
2022-10-19T16:20:48.000Z,16000.0
2022-10-19T16:21:48.000Z,16000.0
2022-10-19T16:22:49.000Z,16000.0
2022-10-19T16:23:48.000Z,16000.0
2022-10-19T16:24:49.000Z,16000.0
2022-10-19T16:25:48.000Z,16000.0
2022-10-19T16:26:48.000Z,16000.0
2022-10-19T16:27:49.000Z,16000.0
2022-10-19T16:28:48.000Z,16000.0
2022-10-19T16:29:48.000Z,16000.0
2022-10-19T16:30:48.000Z,16000.0
2022-10-19T16:31:48.000Z,16000.0
2022-10-19T16:32:49.000Z,16000.0
2022-10-19T16:33:48.000Z,16000.0
2022-10-19T16:34:48.000Z,16000.0
2022-10-19T16:35:49.000Z,16000.0
2022-10-19T16:36:48.000Z,16000.0
2022-10-19T16:37:49.000Z,16000.0
2022-10-19T16:38:48.000Z,16000.0
2022-10-19T16:39:48.000Z,16000.0
2022-10-19T16:40:49.000Z,16000.0
2022-10-19T16:41:48.000Z,16000.0
2022-10-19T16:42:48.000Z,16000.0
2022-10-19T16:43:49.000Z,16000.0
2022-10-19T16:44:48.000Z,16000.0